New Richmond Regional Airport
KRNH : rendu visible

Aérodrome :











RETROUVEZ-NOUS SUR...

 
LOGIN :

S'inscrire | Disclaimer

   EN    FR    IT 

 









Légende :    VFR   VFR Marginal   IFR   IFR Intensif   IFR Très Intensif
Visi : 
Plafond : 
>= 8 km
>= 3000ft
5 à 8 km
1000 à 3000 ft
1500m à 5 km
500 à 1000 ft
800 à 1500m
200 à 500 ft
< 800m
< 200 ft
Symboles :   Orages  Brouillard  Fortes neiges  Fortes précipitations  Vent > 20 kt






- Altitude de l'aérodrome : 998 ft


KRNH - New Richmond Regional

DERNIER METAR :
  • 191455Z AUTO 00000KT 4SM BR OVC006 00/00 A2975 RMK AO2 T00010000

METARs EXPIRÉS :
  • 191435Z AUTO 00000KT 3SM BR OVC006 00/00 A2974 RMK AO2 T00000000
  • 191415Z AUTO 00000KT 3SM BR OVC006 00/00 A2974 RMK AO2 T00000000
  • 191355Z AUTO 00000KT 3SM BR OVC006 00/00 A2973 RMK AO2 T00000000
  • 191335Z AUTO 13003KT 4SM BR OVC006 00/00 A2972 RMK AO2 T00001001
  • 191315Z AUTO 00000KT 4SM BR SCT004 BKN010 OVC027 00/00 A2972 RMK AO2 T00001003
  • 191255Z AUTO 00000KT 3SM -SN SCT006 SCT011 OVC029 00/00 A2971 RMK AO2 T10011005
  • 191235Z AUTO 00000KT 3SM -SN SCT006 BKN019 OVC031 00/00 A2971 RMK AO2 T10011005
  • 191215Z AUTO 00000KT 3SM -SN BKN006 BKN011 OVC017 00/00 A2971 RMK AO2 T10011005
  • 191155Z AUTO 00000KT 2 1/2SM -SN BKN006 OVC011 00/00 A2970 RMK AO2 T10011005 11001 21003

TAF KRNH
Valide du 19 à 12h jusqu'au 20 à 12h UTC


191141Z 1912/2012 00000KT 3SM -SN OVC003
FM191400 00000KT 2SM BR OVC003
FM192000 VRB03KT P6SM OVC015
FM200200 00000KT P6SM OVC021



MET'MAP, la Météo Aéronautique d'un coup d'oeil ! - Copyright ORBIFLY Décembre 2007 - Disclaimer

ORBIFLY MET'MAP TEAM :

Programmation & Développement : Alexandra Zaïnal
Conception & Développement : Baudouin d'Aumeries
Co-Programmation & Développement : Marc-Olivier Méhu
Soutien technique & logistique : Manuel Goepfert

Contact : metmap@orbifly.com




SOURCES & CREDITS :

   NOAA       Earth
Advisory